»·PEaware :: SWA1748 KSLC-KDEN

SWA1748 :: KSLC-KDEN

FLIGHT INFORMATION

Flight Status: Arrived
Operator:
Southwest Airlines
More flights by this operator :: More flights under this callsign
Pilot: Sanjiv S. (4490)
Aircraft: BOEING 737-800
(B738)
More flights by this aircraft type
Origin: KSLC Salt Lake City Intl
United States
Destination: KDEN Denver Intl
United States
More flights between these airports :: More routes between these airports
Route: +NSIGN5 CHE KAILE2
File this flight plan on PilotEdge
Remarks:
Altitude:
(Current/Filed)
35,000ft
Speed:
(Current/Filed)
420kts
Departed: 03-Mar-18 10:21 PM
Arrived: 03-Mar-18 11:27 PM
Distance/Time
Traveled:
338nm/1:06
Distance/Time
To Go:
Arrived

Flight Plot

Page will automatically refresh every two minutes.

Flight plan parsing failed; only flown route is shown


Map Options




Map Legend


Flown Route
Filed Route
Departure Airport
Arrival Airport
Navaid (VOR, NDB)
Fix

Horizontal Profiles

Position Reports

Time Latitude Longitude Heading Altitude Ground
Speed
03-Mar-18 21:44 40.789048 -111.985605 122 4204ft 0kts
03-Mar-18 21:45 40.789048 -111.985605 122 4204ft 0kts
03-Mar-18 21:46 40.789048 -111.985605 122 4204ft 0kts
03-Mar-18 21:47 40.789048 -111.985605 122 4204ft 0kts
03-Mar-18 21:48 40.789048 -111.985605 122 4204ft 0kts
03-Mar-18 21:49 40.789048 -111.985605 122 4204ft 0kts
03-Mar-18 21:50 40.789048 -111.985605 122 4204ft 0kts
03-Mar-18 21:51 40.789048 -111.985605 122 4204ft 0kts
03-Mar-18 21:52 40.789048 -111.985605 122 4204ft 0kts
03-Mar-18 21:53 40.789048 -111.985605 122 4204ft 0kts
03-Mar-18 21:54 40.789048 -111.985605 122 4204ft 0kts
03-Mar-18 21:55 40.789048 -111.985605 122 4204ft 0kts
03-Mar-18 21:56 40.789048 -111.985605 122 4204ft 0kts
03-Mar-18 21:57 40.789048 -111.985605 122 4204ft 0kts
03-Mar-18 21:58 40.789048 -111.985605 122 4204ft 0kts
03-Mar-18 21:59 40.789048 -111.985605 122 4204ft 0kts
03-Mar-18 22:00 40.789048 -111.985605 122 4204ft 0kts
03-Mar-18 22:01 40.789048 -111.985605 122 4204ft 0kts
03-Mar-18 22:02 40.789048 -111.985605 122 4204ft 0kts
03-Mar-18 22:03 40.789048 -111.985605 122 4204ft 0kts
03-Mar-18 22:04 40.789048 -111.985605 122 4204ft 0kts
03-Mar-18 22:05 40.789048 -111.985605 122 4204ft 0kts
03-Mar-18 22:06 40.789049 -111.985609 122 4204ft 0kts
03-Mar-18 22:07 40.789326 -111.986175 119 4204ft 1kts
03-Mar-18 22:08 40.789152 -111.986811 56 4204ft 1kts
03-Mar-18 22:09 40.788894 -111.987142 34 4204ft 0kts
03-Mar-18 22:10 40.788894 -111.987142 34 4204ft 0kts
03-Mar-18 22:11 40.788894 -111.987142 34 4204ft 0kts
03-Mar-18 22:12 40.788894 -111.987142 34 4204ft 0kts
03-Mar-18 22:13 40.789282 -111.986587 59 4204ft 4kts
03-Mar-18 22:14 40.789580 -111.984068 86 4204ft 9kts
03-Mar-18 22:15 40.789814 -111.980951 84 4204ft 6kts
03-Mar-18 22:16 40.789849 -111.980398 85 4204ft 0kts
03-Mar-18 22:17 40.789849 -111.980398 85 4204ft 0kts
03-Mar-18 22:18 40.790032 -111.979037 73 4204ft 10kts
03-Mar-18 22:19 40.788502 -111.976915 175 4204ft 12kts
03-Mar-18 22:20 40.784315 -111.976437 174 4204ft 14kts
03-Mar-18 22:21 40.780005 -111.975913 175 4204ft 17kts
03-Mar-18 22:22 40.775532 -111.975338 172 4204ft 11kts
03-Mar-18 22:23 40.774492 -111.974431 93 4204ft 0kts
03-Mar-18 22:24 40.774492 -111.974431 93 4204ft 0kts
03-Mar-18 22:25 40.774492 -111.974431 93 4204ft 0kts
03-Mar-18 22:26 40.774492 -111.974431 93 4204ft 0kts
03-Mar-18 22:27 40.775204 -111.973209 3 4204ft 11kts
03-Mar-18 22:28 40.778231 -111.973562 355 4204ft 68kts
03-Mar-18 22:29 40.824575 -111.980375 357 4871ft 229kts
03-Mar-18 22:30 40.884073 -111.985137 353 7676ft 221kts
03-Mar-18 22:31 40.944084 -111.994780 353 9788ft 243kts
03-Mar-18 22:32 41.017558 -112.006111 353 11446ft 295kts
03-Mar-18 22:33 41.098993 -111.994023 36 13386ft 332kts
03-Mar-18 22:34 41.144345 -111.904957 81 15639ft 344kts
03-Mar-18 22:35 41.123932 -111.782225 126 18029ft 357kts
03-Mar-18 22:36 41.077146 -111.734767 149 19389ft 364kts
03-Mar-18 22:37 40.989126 -111.666603 149 21304ft 385kts
03-Mar-18 22:38 40.920852 -111.572126 103 23551ft 383kts
03-Mar-18 22:39 40.911301 -111.431985 94 25385ft 394kts
03-Mar-18 22:40 40.898957 -111.307831 99 26863ft 403kts
03-Mar-18 22:41 40.882337 -111.169793 99 28370ft 413kts
03-Mar-18 22:42 40.864410 -111.020286 99 30088ft 415kts
03-Mar-18 22:43 40.846376 -110.871361 99 31830ft 412kts
03-Mar-18 22:44 40.828214 -110.723003 99 33364ft 409kts
03-Mar-18 22:45 40.810032 -110.576096 99 34688ft 407kts
03-Mar-18 22:46 40.791423 -110.427336 99 35034ft 423kts
03-Mar-18 22:47 40.773324 -110.284184 99 35034ft 444kts
03-Mar-18 22:48 40.752691 -110.122770 99 35026ft 450kts
03-Mar-18 22:49 40.736273 -109.960043 94 35026ft 450kts
03-Mar-18 22:50 40.725316 -109.796898 95 35027ft 450kts
03-Mar-18 22:51 40.713563 -109.633594 95 35027ft 450kts
03-Mar-18 22:52 40.701562 -109.470533 95 35027ft 450kts
03-Mar-18 22:53 40.690819 -109.327176 95 35027ft 450kts
03-Mar-18 22:54 40.678495 -109.165574 95 35027ft 450kts
03-Mar-18 22:55 40.665906 -109.003497 95 35027ft 450kts
03-Mar-18 22:56 40.653035 -108.840744 95 35027ft 450kts
03-Mar-18 22:57 40.639964 -108.678360 95 35027ft 450kts
03-Mar-18 22:58 40.626615 -108.515257 95 35027ft 450kts
03-Mar-18 22:59 40.613082 -108.353117 95 35027ft 450kts
03-Mar-18 23:00 40.601737 -108.219120 96 35027ft 450kts
03-Mar-18 23:01 40.587813 -108.057173 96 35027ft 450kts
03-Mar-18 23:02 40.573717 -107.895898 96 35027ft 450kts
03-Mar-18 23:03 40.559303 -107.733663 96 35027ft 450kts
03-Mar-18 23:04 40.544741 -107.572371 96 35027ft 450kts
03-Mar-18 23:05 40.529960 -107.411218 96 35027ft 450kts
03-Mar-18 23:06 40.517396 -107.266237 93 35028ft 450kts
03-Mar-18 23:07 40.509485 -107.104644 93 35027ft 450kts
03-Mar-18 23:08 40.500954 -106.945596 94 35027ft 450kts
03-Mar-18 23:09 40.492033 -106.784764 94 35027ft 450kts
03-Mar-18 23:10 40.482867 -106.623638 94 35006ft 422kts
03-Mar-18 23:11 40.474361 -106.477525 94 33406ft 402kts
03-Mar-18 23:12 40.465775 -106.333182 94 31424ft 411kts
03-Mar-18 23:13 40.457106 -106.190669 94 29480ft 413kts
03-Mar-18 23:14 40.447877 -106.042069 94 27446ft 409kts
03-Mar-18 23:15 40.430771 -105.899991 102 25492ft 394kts
03-Mar-18 23:16 40.408963 -105.764063 101 23589ft 383kts
03-Mar-18 23:17 40.394908 -105.675519 101 22321ft 377kts
03-Mar-18 23:18 40.374292 -105.546254 101 20511ft 346kts
03-Mar-18 23:19 40.355101 -105.426577 100 18863ft 332kts
03-Mar-18 23:20 40.340072 -105.315324 100 17489ft 324kts
03-Mar-18 23:21 40.324487 -105.201424 100 16079ft 317kts
03-Mar-18 23:22 40.309273 -105.091561 100 14723ft 307kts
03-Mar-18 23:23 40.294634 -104.986587 100 13422ft 288kts
03-Mar-18 23:24 40.280224 -104.885104 100 12230ft 276kts
03-Mar-18 23:25 40.266943 -104.792790 100 11243ft 253kts
03-Mar-18 23:26 40.240180 -104.708735 133 10477ft 253kts
03-Mar-18 23:27 40.176936 -104.684352 179 9901ft 225kts
03-Mar-18 23:28 40.117457 -104.684274 180 9738ft 213kts
03-Mar-18 23:29 40.061093 -104.684829 180 8683ft 195kts
03-Mar-18 23:30 40.012125 -104.685406 180 7715ft 168kts
03-Mar-18 23:31 39.967093 -104.685945 180 6853ft 157kts
03-Mar-18 23:32 39.923449 -104.685907 182 5884ft 165kts
03-Mar-18 23:33 39.886994 -104.686784 180 5442ft 97kts
03-Mar-18 23:34 39.875595 -104.685013 150 5441ft 22kts
03-Mar-18 23:35 39.872339 -104.683673 180 5441ft 9kts
03-Mar-18 23:36 39.869019 -104.683696 180 5441ft 14kts
03-Mar-18 23:37 39.864673 -104.683724 165 5441ft 11kts
03-Mar-18 23:38 39.864777 -104.680458 86 5441ft 14kts
03-Mar-18 23:39 39.864018 -104.677309 149 5441ft 3kts
03-Mar-18 23:40 39.863578 -104.677209 177 5441ft 0kts
03-Mar-18 23:41 39.863578 -104.677209 177 5441ft 0kts

Navigation Log

Ident Type
Flight plan parsing failed, navigation log unavailable